Time;durP1;ratioP1;P1;durP2;ratioP2;P2;SDS_P1;SDS_P2;PMS_P1;PMS_P2;Temp;Humidity;BMP_temperature;BMP_pressure;BME280_temperature;BME280_humidity;BME280_pressure;Samples;Min_cycle;Max_cycle;Signal;HPM_P1;HPM_P2
2021/10/26 00:00:56;;;;;;;27.60;13.70;;;;;;;-1.42;82.31;98459.27;117034;1179;59668;-70
2021/10/26 00:03:27;;;;;;;26.30;12.90;;;;;;;-1.45;82.66;98455.66;117017;1177;71201;-68
2021/10/26 00:05:56;;;;;;;27.50;13.00;;;;;;;-1.47;83.07;98455.43;117000;1177;67703;-69
2021/10/26 00:08:25;;;;;;;23.90;14.10;;;;;;;-1.49;82.88;98455.59;116730;1180;70329;-73
2021/10/26 00:10:54;;;;;;;26.60;14.30;;;;;;;-1.52;81.84;98453.26;116864;1179;59539;-69
2021/10/26 00:13:24;;;;;;;26.10;14.00;;;;;;;-1.54;81.29;98450.17;116949;1177;59550;-69
2021/10/26 00:15:53;;;;;;;21.50;11.10;;;;;;;-1.57;81.12;98450.70;116923;1177;71366;-70
2021/10/26 00:18:23;;;;;;;22.60;12.50;;;;;;;-1.60;81.46;98452.20;116918;1177;68383;-68
2021/10/26 00:20:52;;;;;;;26.40;14.90;;;;;;;-1.63;81.96;98450.00;116900;1177;68318;-70
2021/10/26 00:23:22;;;;;;;29.40;15.40;;;;;;;-1.63;81.35;98446.48;116961;1177;59532;-72
2021/10/26 00:25:51;;;;;;;32.30;16.60;;;;;;;-1.67;80.33;98441.64;116909;1177;59527;-69
2021/10/26 00:28:21;;;;;;;32.60;18.50;;;;;;;-1.74;80.04;98432.85;116763;1179;70449;-70
2021/10/26 00:30:51;;;;;;;32.90;17.40;;;;;;;-1.84;79.45;98433.35;117036;1177;67439;-68
2021/10/26 00:33:21;;;;;;;30.60;16.90;;;;;;;-1.93;80.24;98427.23;116965;1177;68425;-68
2021/10/26 00:35:51;;;;;;;29.00;15.50;;;;;;;-2.00;80.74;98424.68;117091;1176;59501;-69
2021/10/26 00:38:22;;;;;;;36.50;18.50;;;;;;;-2.08;81.34;98423.11;116976;1177;59500;-72
2021/10/26 00:40:52;;;;;;;31.60;15.10;;;;;;;-2.17;80.34;98423.98;116936;1177;71391;-70
2021/10/26 00:43:22;;;;;;;29.90;15.10;;;;;;;-2.21;81.96;98421.02;117212;1176;68892;-72
2021/10/26 00:45:51;;;;;;;28.60;14.40;;;;;;;-2.23;82.16;98425.27;116978;1177;69048;-68
2021/10/26 00:48:21;;;;;;;21.30;11.00;;;;;;;-2.23;83.31;98424.98;117126;1177;59531;-68
2021/10/26 00:50:52;;;;;;;;;;;;;;;-2.23;83.37;98421.03;117096;1177;59892;-69
2021/10/26 00:53:21;;;;;;;23.40;11.70;;;;;;;-2.26;82.46;98418.50;117018;1177;71205;-69
2021/10/26 00:55:52;;;;;;;;;;;;;;;-2.29;82.59;98415.30;117270;1176;68408;-70
2021/10/26 00:58:22;;;;;;;23.50;11.50;;;;;;;-2.29;82.38;98409.98;116998;1177;69178;-69
2021/10/26 01:00:52;;;;;;;23.90;12.50;;;;;;;-2.30;82.51;98408.67;116917;1177;59600;-69
2021/10/26 01:03:22;;;;;;;26.10;13.20;;;;;;;-2.33;81.54;98407.88;116988;1177;59607;-70
2021/10/26 01:05:52;;;;;;;;;;;;;;;-2.35;81.94;98399.02;116990;1177;71326;-67
2021/10/26 01:08:24;;;;;;;23.60;13.60;;;;;;;-2.36;81.94;98399.14;117212;1177;67636;-69
2021/10/26 01:10:54;;;;;;;31.70;16.00;;;;;;;-2.38;80.46;98395.48;116942;1177;69306;-67
2021/10/26 01:13:24;;;;;;;28.10;14.90;;;;;;;-2.41;81.34;98398.04;116955;1177;59552;-74
2021/10/26 01:15:57;;;;;;;25.20;14.30;;;;;;;-2.39;81.66;98398.17;117245;1177;59541;-69
2021/10/26 01:18:29;;;;;;;27.30;13.20;;;;;;;-2.34;82.99;98395.32;117297;1176;71374;-69
2021/10/26 01:20:59;;;;;;;23.20;12.50;;;;;;;-2.33;82.77;98389.98;116851;1177;67879;-68
2021/10/26 01:23:30;;;;;;;23.60;12.00;;;;;;;-2.31;83.92;98387.96;117122;1177;69044;-73
2021/10/26 01:26:02;;;;;;;26.10;11.90;;;;;;;-2.30;84.28;98388.06;117011;1177;59670;-75
2021/10/26 01:28:31;;;;;;;23.40;12.30;;;;;;;-2.31;83.95;98385.87;117072;1177;59529;-68
2021/10/26 01:31:02;;;;;;;19.50;11.50;;;;;;;-2.31;83.15;98388.58;117002;1177;70540;-68
2021/10/26 01:33:55;;;;;;;24.90;12.80;;;;;;;-2.28;84.62;98383.41;117203;1176;67504;-68
2021/10/26 01:36:34;;;;;;;21.40;10.40;;;;;;;-2.27;85.31;98380.71;117086;1176;69672;-71
2021/10/26 01:39:04;;;;;;;22.50;11.50;;;;;;;-2.26;85.99;98380.36;117062;1177;59513;-72
2021/10/26 01:41:36;;;;;;;20.40;11.40;;;;;;;-2.27;85.83;98384.84;116867;1178;59522;-71
2021/10/26 01:44:07;;;;;;;16.90;9.40;;;;;;;-2.28;85.23;98385.90;116979;1177;70655;-73
2021/10/26 01:46:39;;;;;;;19.60;10.70;;;;;;;-2.30;85.06;98386.85;116950;1177;67704;-72
2021/10/26 01:49:09;;;;;;;19.10;10.50;;;;;;;-2.31;84.84;98383.67;116926;1177;69677;-71
2021/10/26 01:51:39;;;;;;;24.50;11.90;;;;;;;-2.31;85.08;98380.13;116963;1177;59577;-73
2021/10/26 01:54:09;;;;;;;18.30;10.60;;;;;;;-2.32;84.17;98377.83;116867;1178;59539;-69
2021/10/26 01:56:41;;;;;;;24.40;12.90;;;;;;;-2.35;84.93;98372.36;117242;1177;71381;-68
2021/10/26 01:59:18;;;;;;;26.50;13.90;;;;;;;-2.42;84.10;98368.16;117255;1170;68159;-70
2021/10/26 02:01:48;;;;;;;24.90;14.10;;;;;;;-2.51;82.83;98368.70;116946;1177;69265;-67
2021/10/26 02:04:33;;;;;;;25.60;14.40;;;;;;;-2.59;82.90;98370.25;117128;1176;59487;-68
2021/10/26 02:07:05;;;;;;;27.00;13.60;;;;;;;-2.64;83.03;98369.92;117010;1177;59463;-65
2021/10/26 02:09:34;;;;;;;36.60;16.60;;;;;;;-2.67;83.70;98362.08;116970;1176;70628;-75
2021/10/26 02:12:05;;;;;;;32.70;16.60;;;;;;;-2.67;84.79;98360.19;117131;1177;67547;-71
2021/10/26 02:14:35;;;;;;;29.20;15.70;;;;;;;-2.65;84.35;98363.23;116830;1179;68266;-69
2021/10/26 02:17:06;;;;;;;31.50;14.90;;;;;;;-2.58;83.93;98360.45;116891;1177;59511;-71
2021/10/26 02:19:36;;;;;;;25.20;14.70;;;;;;;-2.49;85.02;98355.08;117140;1176;59521;-68
2021/10/26 02:22:06;;;;;;;25.20;14.40;;;;;;;-2.43;85.55;98356.26;117039;1177;71331;-68
2021/10/26 02:24:37;;;;;;;24.30;13.20;;;;;;;-2.43;85.34;98354.34;117222;1177;67865;-68
2021/10/26 02:27:07;;;;;;;29.10;13.40;;;;;;;-2.45;84.83;98355.50;116833;1180;69239;-67
2021/10/26 02:29:36;;;;;;;27.70;14.70;;;;;;;-2.49;84.39;98354.45;117015;1177;59538;-76
2021/10/26 02:32:08;;;;;;;21.30;10.60;;;;;;;-2.52;84.86;98353.70;117090;1174;59461;-70
2021/10/26 02:34:38;;;;;;;22.20;10.50;;;;;;;-2.54;85.64;98353.62;116843;1177;71166;-71
2021/10/26 02:37:08;;;;;;;23.80;12.70;;;;;;;-2.56;85.97;98355.87;116950;1177;68482;-73
2021/10/26 02:39:40;;;;;;;25.60;12.00;;;;;;;-2.59;85.59;98350.19;116986;1177;68548;-71
2021/10/26 02:42:10;;;;;;;24.80;12.80;;;;;;;-2.61;85.40;98345.30;117058;1177;59903;-70
2021/10/26 02:44:41;;;;;;;22.70;11.80;;;;;;;-2.62;85.81;98342.63;116851;1177;59556;-68
2021/10/26 02:47:10;;;;;;;21.00;11.30;;;;;;;-2.64;86.21;98341.25;116939;1178;71260;-69
2021/10/26 02:49:40;;;;;;;26.40;12.90;;;;;;;-2.67;86.12;98344.34;116909;1180;68370;-74
2021/10/26 02:52:12;;;;;;;21.00;11.50;;;;;;;-2.72;86.01;98349.30;116931;1177;69006;-68
2021/10/26 02:54:41;;;;;;;23.60;10.90;;;;;;;-2.77;85.44;98348.29;116919;1177;60050;-67
2021/10/26 02:57:11;;;;;;;26.40;11.50;;;;;;;-2.83;85.27;98344.67;116971;1178;59577;-68
2021/10/26 02:59:41;;;;;;;22.30;11.50;;;;;;;-2.87;84.95;98342.55;116989;1177;71572;-67
2021/10/26 03:02:10;;;;;;;24.00;12.30;;;;;;;-2.92;85.01;98343.32;116976;1177;68267;-74
2021/10/26 03:04:43;;;;;;;26.90;13.10;;;;;;;-2.91;85.38;98342.01;116965;1177;67286;-69
2021/10/26 03:07:13;;;;;;;;;;;;;;;-2.93;85.12;98341.00;117012;1177;59529;-70
2021/10/26 03:09:46;;;;;;;21.40;13.40;;;;;;;-2.96;84.18;98346.31;117007;1177;59503;-73
2021/10/26 03:12:16;;;;;;;19.90;11.00;;;;;;;-3.01;83.81;98340.66;116983;1177;70523;-69
2021/10/26 03:14:46;;;;;;;;;;;;;;;-3.02;84.57;98339.61;116974;1177;67708;-72
2021/10/26 03:17:16;;;;;;;19.20;9.30;;;;;;;-3.05;84.26;98340.17;116916;1177;68455;-72
2021/10/26 03:20:00;;;;;;;27.60;13.10;;;;;;;-3.09;85.05;98339.09;116902;1177;59604;-68
2021/10/26 03:22:30;;;;;;;23.80;14.10;;;;;;;-3.09;84.88;98341.02;116913;1178;59479;-69
2021/10/26 03:24:59;;;;;;;25.00;11.90;;;;;;;-3.06;85.62;98337.65;116823;1178;71337;-68
2021/10/26 03:27:30;;;;;;;23.30;14.00;;;;;;;-3.01;85.92;98338.61;116904;1177;68417;-67
2021/10/26 03:30:04;;;;;;;30.00;14.00;;;;;;;-2.99;86.10;98339.55;116962;1177;68468;-72
2021/10/26 03:32:34;;;;;;;23.90;11.50;;;;;;;-3.00;85.18;98335.80;117040;1177;59536;-73
2021/10/26 03:35:21;;;;;;;21.40;11.90;;;;;;;-3.00;85.91;98336.41;116940;1169;59541;-69
2021/10/26 03:37:51;;;;;;;22.90;11.30;;;;;;;-3.00;86.28;98332.94;116936;1177;70635;-69
2021/10/26 03:40:20;;;;;;;21.00;10.80;;;;;;;-2.94;87.69;98330.59;116971;1177;67760;-66
2021/10/26 03:42:49;;;;;;;22.00;13.10;;;;;;;-2.94;87.08;98326.59;116879;1177;67708;-68
2021/10/26 03:45:20;;;;;;;23.20;13.00;;;;;;;-2.96;85.76;98326.49;116981;1177;59548;-68
2021/10/26 03:47:53;;;;;;;25.60;11.90;;;;;;;-3.02;85.08;98325.65;116904;1177;59541;-72
2021/10/26 03:50:25;;;;;;;24.80;12.70;;;;;;;-3.09;84.28;98326.09;116867;1179;69828;-69
2021/10/26 03:52:54;;;;;;;23.00;13.40;;;;;;;-3.13;83.97;98323.06;116901;1177;67651;-74
2021/10/26 03:55:24;;;;;;;19.80;10.90;;;;;;;-3.18;83.95;98320.17;116867;1179;68189;-67
2021/10/26 03:57:56;;;;;;;20.50;11.80;;;;;;;-3.21;84.83;98321.12;116931;1179;59546;-70
2021/10/26 04:00:25;;;;;;;22.80;11.30;;;;;;;-3.25;85.43;98315.16;116838;1179;59539;-70
2021/10/26 04:03:21;;;;;;;29.20;13.90;;;;;;;-3.26;85.86;98311.15;117138;1177;70776;-71
2021/10/26 04:06:03;;;;;;;24.20;11.50;;;;;;;-3.28;84.66;98305.82;116849;1177;68796;-68
2021/10/26 04:11:14;;;;;;;23.90;12.50;;;;;;;-3.27;84.95;98307.65;116747;1177;59548;-72
2021/10/26 04:13:44;;;;;;;21.40;11.10;;;;;;;-3.28;85.08;98305.43;116949;1177;59534;-68
2021/10/26 04:16:15;;;;;;;21.50;12.80;;;;;;;-3.30;85.06;98304.59;116840;1178;70635;-74
2021/10/26 04:18:46;;;;;;;18.40;11.20;;;;;;;-3.33;85.02;98299.13;116991;1177;67938;-69
2021/10/26 04:21:17;;;;;;;18.20;11.20;;;;;;;-3.35;85.50;98298.25;116998;1178;69227;-72
2021/10/26 04:23:51;;;;;;;17.30;9.50;;;;;;;-3.34;86.49;98297.89;116959;1177;59534;-70
2021/10/26 04:26:20;;;;;;;19.00;10.90;;;;;;;-3.34;86.30;98294.64;116913;1178;59672;-71
2021/10/26 04:28:49;;;;;;;25.00;11.20;;;;;;;-3.36;85.80;98295.19;116844;1177;71410;-67
2021/10/26 04:31:19;;;;;;;22.80;10.90;;;;;;;-3.35;85.96;98292.04;116776;1179;66850;-71
2021/10/26 04:33:49;;;;;;;13.10;6.70;;;;;;;-3.39;85.41;98290.83;116991;1178;68408;-71
2021/10/26 04:36:18;;;;;;;22.70;11.90;;;;;;;-3.31;87.69;98289.69;116920;1177;59602;-69
2021/10/26 04:38:51;;;;;;;17.20;8.80;;;;;;;-3.31;87.35;98287.77;116852;1177;59614;-69
2021/10/26 04:41:20;;;;;;;13.70;7.10;;;;;;;-3.32;87.23;98289.34;116913;1177;70638;-70
2021/10/26 04:43:50;;;;;;;17.30;9.30;;;;;;;-3.33;87.30;98289.31;116811;1178;67540;-70
2021/10/26 04:46:19;;;;;;;15.70;8.10;;;;;;;-3.34;87.16;98286.48;116852;1177;69253;-70
2021/10/26 04:48:48;;;;;;;18.70;10.60;;;;;;;-3.37;87.13;98282.14;116885;1171;59535;-70
2021/10/26 04:51:17;;;;;;;19.30;10.10;;;;;;;-3.40;86.06;98279.61;116819;1177;59483;-68
2021/10/26 04:53:47;;;;;;;17.80;9.00;;;;;;;-3.40;86.37;98279.17;116896;1177;70610;-74
2021/10/26 04:56:16;;;;;;;18.40;10.30;;;;;;;-3.38;87.33;98282.19;117032;1177;67643;-71
2021/10/26 04:59:15;;;;;;;27.70;14.40;;;;;;;-3.38;86.83;98278.27;116536;1177;69247;-73
2021/10/26 05:01:44;;;;;;;29.60;14.50;;;;;;;-3.37;86.26;98282.74;116965;1177;59519;-69
2021/10/26 05:04:14;;;;;;;35.10;18.20;;;;;;;-3.42;85.44;98280.95;116974;1177;59528;-72
2021/10/26 05:06:45;;;;;;;41.20;19.50;;;;;;;-3.48;84.95;98284.08;116986;1177;70547;-70
2021/10/26 05:09:14;;;;;;;37.30;19.30;;;;;;;-3.53;84.58;98287.30;116999;1177;68310;-68
2021/10/26 05:11:43;;;;;;;39.20;19.30;;;;;;;-3.58;84.22;98285.58;117092;1177;69152;-69
2021/10/26 05:14:12;;;;;;;37.10;16.30;;;;;;;-3.61;83.91;98286.15;116994;1177;59538;-73
2021/10/26 05:17:02;;;;;;;22.60;11.70;;;;;;;-3.62;84.09;98291.11;117010;1177;59512;-73
2021/10/26 05:19:52;;;;;;;26.40;14.90;;;;;;;-3.61;84.71;98295.16;116919;1177;70608;-69
2021/10/26 05:22:39;;;;;;;30.50;13.80;;;;;;;-3.60;84.52;98299.39;116993;1177;67533;-74
2021/10/26 05:25:27;;;;;;;22.70;11.10;;;;;;;-3.55;85.37;98300.70;116989;1177;68421;-69
2021/10/26 05:28:16;;;;;;;23.50;14.50;;;;;;;-3.48;85.63;98302.05;117192;1176;59603;-71
2021/10/26 05:30:45;;;;;;;25.30;13.10;;;;;;;-3.43;85.52;98306.83;116857;1177;59545;-71
2021/10/26 05:33:14;;;;;;;34.10;16.00;;;;;;;-3.37;85.96;98311.48;116956;1177;71404;-75
2021/10/26 05:35:43;;;;;;;31.30;15.20;;;;;;;-3.31;85.55;98312.14;116879;1178;68363;-71
2021/10/26 05:38:12;;;;;;;39.80;18.60;;;;;;;-3.27;85.00;98314.85;116962;1177;69056;-71
2021/10/26 05:40:42;;;;;;;35.10;18.10;;;;;;;-3.23;84.54;98319.39;116970;1177;59611;-74
2021/10/26 05:43:11;;;;;;;35.70;19.00;;;;;;;-3.22;83.91;98321.79;116935;1177;59592;-70
2021/10/26 05:45:45;;;;;;;40.40;19.40;;;;;;;-3.18;83.63;98320.78;117005;1177;71338;-75
2021/10/26 05:48:19;;;;;;;39.90;18.80;;;;;;;-3.11;83.78;98323.42;116927;1177;67662;-71
2021/10/26 05:50:48;;;;;;;37.20;18.40;;;;;;;-3.04;83.84;98321.95;116895;1177;68395;-72
2021/10/26 05:53:17;;;;;;;33.00;19.60;;;;;;;-2.97;83.83;98321.84;116888;1177;59603;-68
2021/10/26 05:55:45;;;;;;;32.10;17.10;;;;;;;-2.88;83.70;98326.39;117018;1177;59532;-73
2021/10/26 05:58:15;;;;;;;27.00;16.30;;;;;;;-2.78;83.49;98326.48;117101;1177;70641;-68
2021/10/26 06:00:45;;;;;;;36.40;19.00;;;;;;;-2.66;83.26;98325.91;116992;1177;68494;-72
2021/10/26 06:03:14;;;;;;;35.30;18.90;;;;;;;-2.53;83.65;98327.33;117046;1177;68592;-75
2021/10/26 06:05:44;;;;;;;36.60;18.60;;;;;;;-2.38;83.64;98327.67;116990;1177;59515;-70
2021/10/26 06:08:13;;;;;;;39.80;23.20;;;;;;;-2.24;83.59;98330.76;116981;1178;59561;-72
2021/10/26 06:10:44;;;;;;;53.40;27.50;;;;;;;-1.98;83.06;98334.80;117067;1177;71392;-71
2021/10/26 06:13:21;;;;;;;49.40;26.60;;;;;;;-1.48;82.52;98338.73;117053;1177;69078;-72
2021/10/26 06:15:50;;;;;;;41.00;22.80;;;;;;;-0.84;81.38;98339.46;116969;1177;68449;-74
2021/10/26 06:18:20;;;;;;;34.70;20.20;;;;;;;-0.14;78.50;98331.04;116880;1179;59570;-76
2021/10/26 06:20:49;;;;;;;38.10;19.50;;;;;;;0.51;76.11;98334.21;116952;1178;59500;-77
2021/10/26 06:23:18;;;;;;;50.50;26.70;;;;;;;1.12;73.63;98327.62;116986;1177;71387;-77
2021/10/26 06:25:47;;;;;;;81.00;46.60;;;;;;;1.77;77.01;98334.27;116952;1177;68759;-75
2021/10/26 06:28:39;;;;;;;154.10;74.40;;;;;;;2.41;76.04;98339.42;116840;1177;69246;-77
2021/10/26 06:31:07;;;;;;;59.50;34.80;;;;;;;2.99;75.70;98337.23;117026;1177;59545;-75
2021/10/26 06:33:41;;;;;;;69.20;42.10;;;;;;;3.58;71.77;98334.70;117000;1177;59520;-72
2021/10/26 06:36:29;;;;;;;82.20;47.60;;;;;;;3.92;62.21;98336.13;116932;1177;71971;-73
2021/10/26 06:38:58;;;;;;;92.40;49.20;;;;;;;4.20;62.56;98331.40;116941;1177;68086;-72
2021/10/26 06:41:28;;;;;;;97.30;53.10;;;;;;;4.67;63.35;98333.73;116974;1177;69298;-77
2021/10/26 06:44:03;;;;;;;73.50;47.40;;;;;;;4.90;60.80;98331.01;117130;1177;59609;-74
2021/10/26 06:46:50;;;;;;;80.30;46.60;;;;;;;5.13;58.72;98328.12;117199;1176;59549;-77
2021/10/26 06:49:37;;;;;;;65.30;39.30;;;;;;;5.66;59.32;98330.37;116998;1177;69642;-77
2021/10/26 06:52:24;;;;;;;64.50;38.00;;;;;;;5.93;56.44;98325.78;117131;1177;66700;-74
2021/10/26 06:55:18;;;;;;;52.20;31.70;;;;;;;6.28;56.28;98327.30;117075;1174;69694;-74
2021/10/26 06:58:05;;;;;;;37.40;24.70;;;;;;;7.03;55.19;98321.29;117106;1176;59541;-78
2021/10/26 07:01:13;;;;;;;43.00;24.70;;;;;;;7.78;56.54;98319.42;116467;1180;59615;-72
2021/10/26 07:04:04;;;;;;;37.80;24.10;;;;;;;8.45;55.78;98315.80;116580;1180;71165;-78
2021/10/26 07:06:44;;;;;;;34.70;22.40;;;;;;;8.97;54.35;98315.31;116889;1177;68395;-78
2021/10/26 07:09:32;;;;;;;30.70;20.10;;;;;;;9.14;50.85;98315.55;117190;1176;68986;-72
2021/10/26 07:12:01;;;;;;;26.40;18.40;;;;;;;9.13;50.47;98316.90;116937;1177;59533;-71
2021/10/26 07:14:30;;;;;;;26.40;16.50;;;;;;;9.46;50.54;98316.08;116909;1177;59516;-71
2021/10/26 07:16:59;;;;;;;23.40;15.00;;;;;;;9.71;50.13;98319.61;116966;1177;71415;-74
2021/10/26 07:19:28;;;;;;;30.80;14.90;;;;;;;9.80;48.30;98317.90;116943;1177;68389;-76
2021/10/26 07:22:15;;;;;;;26.40;15.10;;;;;;;10.13;47.52;98317.27;116974;1177;69718;-79
2021/10/26 07:24:44;;;;;;;27.00;15.90;;;;;;;9.75;47.85;98315.60;117162;1177;59828;-72
2021/10/26 07:27:17;;;;;;;25.40;14.80;;;;;;;9.53;48.02;98312.94;116960;1177;59540;-76
2021/10/26 07:29:46;;;;;;;21.50;14.30;;;;;;;10.00;46.96;98316.95;116977;1177;71405;-73
2021/10/26 07:32:15;;;;;;;21.60;14.90;;;;;;;10.89;47.38;98316.78;116996;1179;68351;-71
2021/10/26 07:34:44;;;;;;;20.90;13.70;;;;;;;11.58;45.93;98318.73;116989;1178;69301;-72
2021/10/26 07:37:15;;;;;;;23.40;15.40;;;;;;;11.95;43.00;98313.48;116910;1179;59513;-72
2021/10/26 07:39:52;;;;;;;24.30;14.60;;;;;;;11.67;43.57;98314.98;117073;1177;59526;-77
2021/10/26 07:42:22;;;;;;;19.50;12.70;;;;;;;11.81;42.86;98311.30;116729;1179;71447;-72
2021/10/26 07:45:22;;;;;;;;;;;;;;;11.63;43.47;98305.14;116938;1178;69123;-72
2021/10/26 07:47:52;;;;;;;22.00;13.30;;;;;;;12.25;42.83;98299.30;116934;1177;69874;-77
2021/10/26 07:50:21;;;;;;;27.40;13.10;;;;;;;11.59;42.30;98303.73;117088;1176;59520;-70
2021/10/26 07:52:50;;;;;;;20.20;12.40;;;;;;;12.19;41.50;98297.98;116952;1177;59514;-71
2021/10/26 07:55:20;;;;;;;19.80;11.80;;;;;;;11.75;40.89;98299.39;116955;1177;71593;-75
2021/10/26 07:57:55;;;;;;;15.80;8.90;;;;;;;11.52;40.67;98296.19;116967;1177;67660;-76
2021/10/26 08:00:25;;;;;;;15.30;8.70;;;;;;;12.77;38.79;98288.32;116914;1178;68646;-73
2021/10/26 08:03:01;;;;;;;15.90;10.40;;;;;;;13.15;37.77;98287.13;117061;1177;59488;-74
2021/10/26 08:05:54;;;;;;;19.70;10.00;;;;;;;13.15;37.29;98281.50;116998;1176;59507;-72
2021/10/26 08:08:23;;;;;;;15.70;9.10;;;;;;;13.87;36.99;98278.96;116913;1177;71394;-72
2021/10/26 08:10:54;;;;;;;14.30;8.50;;;;;;;14.54;36.22;98280.14;116894;1177;68979;-75
2021/10/26 08:13:23;;;;;;;11.70;7.60;;;;;;;15.22;33.97;98283.50;117071;1177;69923;-73
2021/10/26 08:15:53;;;;;;;14.20;8.80;;;;;;;15.21;33.94;98278.08;116975;1177;59491;-72
2021/10/26 08:18:22;;;;;;;13.30;8.10;;;;;;;15.53;33.83;98278.73;117162;1176;59613;-79
2021/10/26 08:20:51;;;;;;;13.50;7.90;;;;;;;16.26;32.40;98279.59;117064;1176;70697;-76
2021/10/26 08:23:21;;;;;;;17.30;8.20;;;;;;;16.57;31.23;98278.54;116925;1177;67428;-75
2021/10/26 08:25:55;;;;;;;14.10;7.80;;;;;;;16.55;30.57;98273.96;116940;1177;68495;-75
2021/10/26 08:28:24;;;;;;;13.30;8.40;;;;;;;16.69;31.50;98273.55;116974;1177;59586;-71
2021/10/26 08:31:04;;;;;;;17.50;11.10;;;;;;;16.87;30.62;98273.41;117166;1176;59519;-74
2021/10/26 08:36:35;;;;;;;29.30;18.90;;;;;;;16.88;30.48;98265.91;117036;1177;68112;-77
2021/10/26 08:39:05;;;;;;;17.50;9.90;;;;;;;16.72;30.31;98268.61;117046;1177;69029;-79
2021/10/26 08:41:38;;;;;;;14.60;9.50;;;;;;;16.65;31.22;98261.83;116988;1171;59526;-77
2021/10/26 08:44:07;;;;;;;14.60;8.60;;;;;;;17.57;29.41;98258.20;116909;1177;59590;-73
2021/10/26 08:46:36;;;;;;;13.60;8.40;;;;;;;17.49;29.05;98254.78;116972;1177;71796;-76
2021/10/26 08:49:06;;;;;;;13.90;7.80;;;;;;;17.91;29.46;98248.59;116942;1179;68308;-73
2021/10/26 08:51:54;;;;;;;14.60;8.60;;;;;;;18.30;29.06;98246.06;117004;1177;69021;-74
2021/10/26 08:54:23;;;;;;;19.10;11.30;;;;;;;18.43;27.97;98244.34;117013;1177;59616;-81
2021/10/26 08:57:11;;;;;;;12.60;8.60;;;;;;;18.95;27.52;98247.04;116968;1177;59498;-72
2021/10/26 09:00:17;;;;;;;14.10;9.10;;;;;;;19.45;26.87;98248.16;116550;1180;70600;-77
2021/10/26 09:02:50;;;;;;;13.50;8.10;;;;;;;19.07;26.04;98244.52;116914;1177;68572;-71
2021/10/26 09:05:22;;;;;;;12.80;8.60;;;;;;;18.59;26.50;98240.10;116941;1177;69226;-79
2021/10/26 09:08:05;;;;;;;13.50;8.20;;;;;;;17.92;27.06;98240.36;116981;1177;59541;-75
2021/10/26 09:10:36;;;;;;;15.60;9.80;;;;;;;18.28;27.03;98241.59;116993;1177;59545;-79
2021/10/26 09:19:42;;;;;;;12.50;8.90;;;;;;;17.91;28.56;98237.56;117308;1177;69288;-75
2021/10/26 09:22:16;;;;;;;17.80;7.90;;;;;;;18.21;27.35;98224.04;117342;1177;59542;-73
2021/10/26 09:24:59;;;;;;;11.50;8.50;;;;;;;18.83;26.69;98222.10;117167;1177;59956;-73
2021/10/26 09:27:29;;;;;;;14.30;8.40;;;;;;;19.04;26.02;98216.16;117011;1177;70561;-75
2021/10/26 09:30:04;;;;;;;17.70;8.40;;;;;;;19.12;26.27;98213.98;117216;1177;68256;-77
2021/10/26 09:32:37;;;;;;;13.50;7.70;;;;;;;20.49;24.96;98208.54;117279;1177;69602;-76
2021/10/26 09:35:13;;;;;;;14.30;7.90;;;;;;;19.90;24.96;98210.94;117165;1177;59520;-76
2021/10/26 09:37:45;;;;;;;13.80;8.00;;;;;;;19.55;25.95;98203.47;117158;1169;59469;-72
2021/10/26 09:40:14;;;;;;;12.80;7.40;;;;;;;20.85;23.48;98197.77;117203;1177;71273;-70
2021/10/26 09:42:53;;;;;;;11.20;6.80;;;;;;;20.10;23.80;98189.02;117159;1177;66869;-78
2021/10/26 09:45:25;;;;;;;11.40;7.00;;;;;;;20.53;23.29;98188.79;117317;1177;69252;-71
2021/10/26 09:47:58;;;;;;;11.90;7.50;;;;;;;20.14;23.69;98186.02;117327;1177;59526;-78
2021/10/26 09:50:31;;;;;;;10.70;7.20;;;;;;;21.26;22.96;98177.20;117314;1177;59542;-81
2021/10/26 09:53:06;;;;;;;10.80;7.00;;;;;;;20.52;23.99;98179.90;117598;1177;71692;-73
2021/10/26 09:55:42;;;;;;;11.60;7.00;;;;;;;20.97;23.72;98172.84;117466;1177;68550;-78
2021/10/26 09:58:17;;;;;;;9.70;6.80;;;;;;;20.49;23.41;98170.26;117237;1179;69230;-75
2021/10/26 10:00:50;;;;;;;11.60;6.90;;;;;;;21.60;22.85;98162.98;117344;1177;58697;-74
2021/10/26 10:03:26;;;;;;;12.50;7.70;;;;;;;21.74;21.78;98160.02;117382;1177;59528;-73
2021/10/26 10:05:56;;;;;;;13.70;7.30;;;;;;;21.66;21.06;98156.86;117063;1177;70715;-74
2021/10/26 10:08:28;;;;;;;;;;;;;;;20.68;22.22;98156.19;117197;1177;68507;-77
2021/10/26 10:11:19;;;;;;;12.80;6.70;;;;;;;20.84;22.92;98148.63;117051;1177;68393;-72
2021/10/26 10:13:54;;;;;;;10.80;6.60;;;;;;;21.43;22.59;98145.71;117206;1177;59572;-73
2021/10/26 10:16:28;;;;;;;12.10;6.20;;;;;;;21.15;21.80;98143.57;117348;1177;59474;-78
2021/10/26 10:18:57;;;;;;;13.70;6.90;;;;;;;22.16;20.53;98134.39;117286;1174;71412;-74
2021/10/26 10:21:29;;;;;;;12.20;6.50;;;;;;;21.28;20.91;98132.13;117211;1179;68398;-74
2021/10/26 10:24:02;;;;;;;10.10;6.50;;;;;;;21.19;21.30;98131.30;117165;1177;68472;-71
2021/10/26 10:26:35;;;;;;;11.60;6.30;;;;;;;21.98;20.44;98131.17;117185;1177;59881;-71
2021/10/26 10:29:04;;;;;;;12.50;6.50;;;;;;;22.47;20.27;98124.03;117210;1177;59630;-71
2021/10/26 10:31:34;;;;;;;11.80;6.20;;;;;;;22.31;20.08;98119.70;117157;1177;71441;-73
2021/10/26 10:34:05;;;;;;;10.70;6.20;;;;;;;22.47;20.61;98116.13;117210;1178;68749;-73
2021/10/26 10:36:40;;;;;;;12.30;5.40;;;;;;;22.51;20.58;98113.85;117264;1177;68481;-72
2021/10/26 10:39:10;;;;;;;10.70;6.30;;;;;;;23.15;19.13;98107.91;117659;1177;59548;-74
2021/10/26 10:41:41;;;;;;;12.80;5.90;;;;;;;23.88;18.75;98106.84;117462;1177;59505;-73
2021/10/26 10:44:21;;;;;;;10.00;5.60;;;;;;;23.52;18.38;98102.94;117396;1177;70560;-75
2021/10/26 10:46:54;;;;;;;10.20;6.30;;;;;;;23.33;18.74;98098.33;117464;1177;67994;-73
2021/10/26 10:49:44;;;;;;;12.30;6.80;;;;;;;21.87;20.26;98092.48;117268;1177;69233;-70
2021/10/26 10:52:19;;;;;;;9.80;6.40;;;;;;;21.39;20.34;98088.88;117190;1178;59539;-73
2021/10/26 10:54:49;;;;;;;10.30;6.30;;;;;;;21.96;19.98;98086.98;117333;1177;59519;-72
2021/10/26 10:57:37;;;;;;;12.20;6.80;;;;;;;21.37;20.76;98083.73;117317;1177;71619;-71
2021/10/26 11:00:33;;;;;;;8.90;5.50;;;;;;;21.55;20.35;98081.92;117209;1177;68364;-77
2021/10/26 11:03:02;;;;;;;9.40;5.80;;;;;;;22.21;20.12;98077.41;117198;1177;69208;-75
2021/10/26 11:05:37;;;;;;;12.70;6.30;;;;;;;22.52;19.59;98080.19;117247;1178;59593;-72
2021/10/26 11:08:15;;;;;;;10.60;6.20;;;;;;;22.42;19.61;98075.58;117273;1177;59528;-73
2021/10/26 11:10:50;;;;;;;10.40;6.30;;;;;;;23.77;18.47;98073.98;117144;1177;71952;-77
2021/10/26 11:13:19;;;;;;;11.30;6.40;;;;;;;23.84;18.18;98068.64;117213;1177;69104;-75
2021/10/26 11:15:51;;;;;;;10.00;5.80;;;;;;;23.17;18.25;98064.52;117307;1179;69960;-69
2021/10/26 11:18:44;;;;;;;10.00;6.00;;;;;;;22.91;19.48;98063.24;117178;1177;59537;-73
2021/10/26 11:21:23;;;;;;;8.80;5.50;;;;;;;23.28;18.34;98059.50;117094;1177;59552;-77
2021/10/26 11:23:58;;;;;;;9.60;6.00;;;;;;;23.15;19.06;98051.88;116982;1177;71146;-74
2021/10/26 11:26:38;;;;;;;10.50;5.90;;;;;;;23.79;18.31;98048.51;117105;1177;68691;-76
2021/10/26 11:29:09;;;;;;;9.60;5.70;;;;;;;24.13;17.92;98041.38;117025;1177;68663;-78
2021/10/26 11:31:52;;;;;;;11.20;5.80;;;;;;;24.33;17.82;98040.79;117003;1173;59522;-78
2021/10/26 11:34:32;;;;;;;9.70;5.20;;;;;;;23.71;18.08;98040.52;117011;1176;59527;-76
2021/10/26 11:37:07;;;;;;;12.60;5.80;;;;;;;24.23;17.85;98036.84;116943;1178;71323;-72
2021/10/26 11:39:41;;;;;;;;;;;;;;;23.77;18.24;98040.35;116926;1177;68410;-70
2021/10/26 11:42:12;;;;;;;8.90;5.50;;;;;;;23.63;17.99;98037.73;116954;1179;69833;-73
2021/10/26 11:44:43;;;;;;;10.00;5.90;;;;;;;23.60;18.04;98034.98;116934;1179;59554;-77
2021/10/26 11:47:12;;;;;;;11.90;5.90;;;;;;;22.91;18.43;98028.27;117045;1177;59541;-72
2021/10/26 11:49:41;;;;;;;14.20;6.10;;;;;;;22.75;19.09;98027.01;116920;1177;71293;-77
2021/10/26 11:52:11;;;;;;;11.30;6.70;;;;;;;23.47;18.23;98020.92;117001;1177;67675;-81
2021/10/26 11:54:49;;;;;;;9.40;5.60;;;;;;;23.53;18.11;98021.66;117016;1177;69026;-73